sensor_id;sensor_type;location;lat;lon;timestamp;pressure;altitude;pressure_sealevel;temperature;humidity
71504;BME280;59323;50.874;7.028;2022-11-02T00:01:24;101408.91;;;12.53;72.91
71504;BME280;59323;50.874;7.028;2022-11-02T00:04:01;101394.78;;;12.47;72.68
71504;BME280;59323;50.874;7.028;2022-11-02T00:06:27;101398.78;;;12.53;73.01
71504;BME280;59323;50.874;7.028;2022-11-02T00:09:00;101398.72;;;12.50;73.57
71504;BME280;59323;50.874;7.028;2022-11-02T00:11:31;101396.78;;;12.50;73.04
71504;BME280;59323;50.874;7.028;2022-11-02T00:14:12;101389.75;;;12.49;72.85
71504;BME280;59323;50.874;7.028;2022-11-02T00:16:38;101406.66;;;12.58;72.88
71504;BME280;59323;50.874;7.028;2022-11-02T00:19:05;101409.31;;;12.55;73.33
71504;BME280;59323;50.874;7.028;2022-11-02T00:21:31;101399.94;;;12.52;73.57
71504;BME280;59323;50.874;7.028;2022-11-02T00:23:59;101407.38;;;12.55;73.81
71504;BME280;59323;50.874;7.028;2022-11-02T00:26:26;101410.53;;;12.57;73.36
71504;BME280;59323;50.874;7.028;2022-11-02T00:28:52;101416.84;;;12.61;73.18
71504;BME280;59323;50.874;7.028;2022-11-02T00:31:18;101409.81;;;12.60;73.45
71504;BME280;59323;50.874;7.028;2022-11-02T00:33:44;101412.13;;;12.58;73.37
71504;BME280;59323;50.874;7.028;2022-11-02T00:36:09;101402.78;;;12.59;73.54
71504;BME280;59323;50.874;7.028;2022-11-02T00:38:34;101393.16;;;12.65;73.03
71504;BME280;59323;50.874;7.028;2022-11-02T00:41:00;101401.41;;;12.69;72.79
71504;BME280;59323;50.874;7.028;2022-11-02T00:43:25;101399.03;;;12.67;72.65
71504;BME280;59323;50.874;7.028;2022-11-02T00:45:51;101412.75;;;12.71;72.56
71504;BME280;59323;50.874;7.028;2022-11-02T00:48:16;101396.31;;;12.67;72.61
71504;BME280;59323;50.874;7.028;2022-11-02T00:50:41;101404.50;;;12.67;72.75
71504;BME280;59323;50.874;7.028;2022-11-02T00:53:07;101388.84;;;12.64;72.53
71504;BME280;59323;50.874;7.028;2022-11-02T00:55:32;101401.34;;;12.65;72.62
71504;BME280;59323;50.874;7.028;2022-11-02T00:57:57;101402.50;;;12.64;72.57
71504;BME280;59323;50.874;7.028;2022-11-02T01:00:23;101403.22;;;12.61;72.73
71504;BME280;59323;50.874;7.028;2022-11-02T01:02:48;101409.53;;;12.65;72.64
71504;BME280;59323;50.874;7.028;2022-11-02T01:05:14;101410.66;;;12.64;72.83
71504;BME280;59323;50.874;7.028;2022-11-02T01:07:39;101416.13;;;12.64;72.74
71504;BME280;59323;50.874;7.028;2022-11-02T01:10:06;101409.03;;;12.60;73.21
71504;BME280;59323;50.874;7.028;2022-11-02T01:12:32;101410.13;;;12.55;72.91
71504;BME280;59323;50.874;7.028;2022-11-02T01:14:57;101422.31;;;12.61;73.23
71504;BME280;59323;50.874;7.028;2022-11-02T01:17:22;101420.78;;;12.64;73.01
71504;BME280;59323;50.874;7.028;2022-11-02T01:19:49;101423.44;;;12.60;73.39
71504;BME280;59323;50.874;7.028;2022-11-02T01:22:15;101415.94;;;12.54;73.33
71504;BME280;59323;50.874;7.028;2022-11-02T01:24:40;101415.19;;;12.57;73.43
71504;BME280;59323;50.874;7.028;2022-11-02T01:27:06;101415.13;;;12.53;73.94
71504;BME280;59323;50.874;7.028;2022-11-02T01:29:31;101421.09;;;12.59;73.74
71504;BME280;59323;50.874;7.028;2022-11-02T01:31:56;101415.84;;;12.50;73.90
71504;BME280;59323;50.874;7.028;2022-11-02T01:34:25;101416.34;;;12.56;73.83
71504;BME280;59323;50.874;7.028;2022-11-02T01:36:53;101413.97;;;12.54;74.25
71504;BME280;59323;50.874;7.028;2022-11-02T01:39:18;101412.34;;;12.50;74.16
71504;BME280;59323;50.874;7.028;2022-11-02T01:41:43;101416.34;;;12.56;73.96
71504;BME280;59323;50.874;7.028;2022-11-02T01:44:29;101413.69;;;12.59;73.86
71504;BME280;59323;50.874;7.028;2022-11-02T01:47:28;101407.88;;;12.61;74.08
71504;BME280;59323;50.874;7.028;2022-11-02T01:50:07;101405.81;;;12.54;74.35
71504;BME280;59323;50.874;7.028;2022-11-02T01:52:37;101408.59;;;12.58;74.33
71504;BME280;59323;50.874;7.028;2022-11-02T01:55:23;101406.16;;;12.53;74.43
71504;BME280;59323;50.874;7.028;2022-11-02T01:57:57;101404.53;;;12.48;74.64
71504;BME280;59323;50.874;7.028;2022-11-02T02:00:26;101405.59;;;12.44;74.65
71504;BME280;59323;50.874;7.028;2022-11-02T02:05:18;101393.78;;;12.36;74.80
71504;BME280;59323;50.874;7.028;2022-11-02T02:07:45;101403.06;;;12.35;75.15
71504;BME280;59323;50.874;7.028;2022-11-02T02:10:11;101400.81;;;12.37;74.73
71504;BME280;59323;50.874;7.028;2022-11-02T02:12:48;101403.00;;;12.31;74.80
71504;BME280;59323;50.874;7.028;2022-11-02T02:15:13;101391.97;;;12.24;75.31
71504;BME280;59323;50.874;7.028;2022-11-02T02:18:02;101396.63;;;12.24;75.80
71504;BME280;59323;50.874;7.028;2022-11-02T02:29:00;101388.44;;;12.04;76.65
71504;BME280;59323;50.874;7.028;2022-11-02T02:31:39;101399.00;;;12.06;76.30
71504;BME280;59323;50.874;7.028;2022-11-02T02:34:36;101401.56;;;11.99;76.52
71504;BME280;59323;50.874;7.028;2022-11-02T02:37:30;101408.16;;;11.98;76.90
71504;BME280;59323;50.874;7.028;2022-11-02T02:40:01;101416.78;;;12.00;76.90
71504;BME280;59323;50.874;7.028;2022-11-02T02:42:39;101409.94;;;11.90;77.22
71504;BME280;59323;50.874;7.028;2022-11-02T02:47:42;101400.91;;;11.86;77.90
71504;BME280;59323;50.874;7.028;2022-11-02T02:50:19;101409.59;;;11.92;78.10
71504;BME280;59323;50.874;7.028;2022-11-02T02:52:47;101401.19;;;11.81;77.55
71504;BME280;59323;50.874;7.028;2022-11-02T02:55:17;101411.72;;;11.83;78.15
71504;BME280;59323;50.874;7.028;2022-11-02T02:57:45;101408.13;;;11.79;78.23
71504;BME280;59323;50.874;7.028;2022-11-02T03:00:16;101400.47;;;11.68;78.61
71504;BME280;59323;50.874;7.028;2022-11-02T03:02:44;101406.81;;;11.72;78.85
71504;BME280;59323;50.874;7.028;2022-11-02T03:05:26;101413.03;;;11.73;78.46
71504;BME280;59323;50.874;7.028;2022-11-02T03:07:53;101411.72;;;11.67;78.84
71504;BME280;59323;50.874;7.028;2022-11-02T03:10:21;101407.41;;;11.66;79.07
71504;BME280;59323;50.874;7.028;2022-11-02T03:15:41;101418.56;;;11.61;78.89
71504;BME280;59323;50.874;7.028;2022-11-02T03:18:16;101422.38;;;11.56;79.25
71504;BME280;59323;50.874;7.028;2022-11-02T03:23:52;101424.13;;;11.49;79.50
71504;BME280;59323;50.874;7.028;2022-11-02T03:26:29;101424.22;;;11.52;79.71
71504;BME280;59323;50.874;7.028;2022-11-02T03:29:02;101432.72;;;11.51;79.54
71504;BME280;59323;50.874;7.028;2022-11-02T03:34:09;101441.69;;;11.51;80.04
71504;BME280;59323;50.874;7.028;2022-11-02T03:36:44;101437.66;;;11.45;80.07
71504;BME280;59323;50.874;7.028;2022-11-02T03:39:14;101445.13;;;11.48;79.85
71504;BME280;59323;50.874;7.028;2022-11-02T03:41:43;101452.50;;;11.48;80.18
71504;BME280;59323;50.874;7.028;2022-11-02T03:44:14;101451.25;;;11.45;80.05
71504;BME280;59323;50.874;7.028;2022-11-02T03:46:42;101453.53;;;11.43;80.09
71504;BME280;59323;50.874;7.028;2022-11-02T03:49:12;101451.97;;;11.42;80.15
71504;BME280;59323;50.874;7.028;2022-11-02T03:51:43;101456.34;;;11.47;80.17
71504;BME280;59323;50.874;7.028;2022-11-02T03:54:26;101447.22;;;11.39;80.29
71504;BME280;59323;50.874;7.028;2022-11-02T03:56:57;101449.88;;;11.35;80.69
71504;BME280;59323;50.874;7.028;2022-11-02T03:59:29;101455.31;;;11.35;80.70
71504;BME280;59323;50.874;7.028;2022-11-02T04:01:55;101443.91;;;11.30;80.91
71504;BME280;59323;50.874;7.028;2022-11-02T04:04:21;101456.72;;;11.29;81.14
71504;BME280;59323;50.874;7.028;2022-11-02T04:06:47;101468.47;;;11.33;80.53
71504;BME280;59323;50.874;7.028;2022-11-02T04:09:13;101471.19;;;11.33;80.90
71504;BME280;59323;50.874;7.028;2022-11-02T04:11:43;101486.72;;;11.33;80.98
71504;BME280;59323;50.874;7.028;2022-11-02T04:14:27;101483.47;;;11.27;80.93
71504;BME280;59323;50.874;7.028;2022-11-02T04:17:02;101476.03;;;11.24;80.57
71504;BME280;59323;50.874;7.028;2022-11-02T04:19:46;101486.63;;;11.29;80.20
71504;BME280;59323;50.874;7.028;2022-11-02T04:22:14;101479.97;;;11.27;80.69
71504;BME280;59323;50.874;7.028;2022-11-02T04:25:02;101487.34;;;11.26;80.48
71504;BME280;59323;50.874;7.028;2022-11-02T04:27:40;101500.25;;;11.29;80.40
71504;BME280;59323;50.874;7.028;2022-11-02T04:30:07;101504.53;;;11.30;80.36
71504;BME280;59323;50.874;7.028;2022-11-02T04:32:42;101502.53;;;11.27;80.40
71504;BME280;59323;50.874;7.028;2022-11-02T04:35:27;101506.81;;;11.28;80.75
71504;BME280;59323;50.874;7.028;2022-11-02T04:38:01;101511.03;;;11.26;80.90
71504;BME280;59323;50.874;7.028;2022-11-02T04:40:45;101512.97;;;11.25;80.35
71504;BME280;59323;50.874;7.028;2022-11-02T04:43:13;101522.72;;;11.26;80.89
71504;BME280;59323;50.874;7.028;2022-11-02T04:45:51;101527.09;;;11.31;80.28
71504;BME280;59323;50.874;7.028;2022-11-02T04:48:16;101526.31;;;11.30;80.87
71504;BME280;59323;50.874;7.028;2022-11-02T04:50:41;101530.19;;;11.29;80.59
71504;BME280;59323;50.874;7.028;2022-11-02T04:53:07;101524.66;;;11.26;80.54
71504;BME280;59323;50.874;7.028;2022-11-02T04:55:33;101527.38;;;11.26;81.09
71504;BME280;59323;50.874;7.028;2022-11-02T04:57:58;101530.69;;;11.19;80.78
71504;BME280;59323;50.874;7.028;2022-11-02T05:00:24;101537.00;;;11.23;80.80
71504;BME280;59323;50.874;7.028;2022-11-02T05:02:52;101540.00;;;11.18;80.62
71504;BME280;59323;50.874;7.028;2022-11-02T05:05:17;101545.53;;;11.22;80.21
71504;BME280;59323;50.874;7.028;2022-11-02T05:07:45;101536.72;;;11.13;80.20
71504;BME280;59323;50.874;7.028;2022-11-02T05:10:11;101554.28;;;11.15;80.28
71504;BME280;59323;50.874;7.028;2022-11-02T05:12:37;101544.00;;;11.08;80.43
71504;BME280;59323;50.874;7.028;2022-11-02T05:15:02;101563.59;;;11.14;80.09
71504;BME280;59323;50.874;7.028;2022-11-02T05:17:29;101555.69;;;11.09;79.99
71504;BME280;59323;50.874;7.028;2022-11-02T05:19:54;101562.13;;;11.04;80.54
71504;BME280;59323;50.874;7.028;2022-11-02T05:22:20;101559.75;;;11.03;80.36
71504;BME280;59323;50.874;7.028;2022-11-02T05:24:45;101565.19;;;11.03;80.18
71504;BME280;59323;50.874;7.028;2022-11-02T05:27:10;101576.66;;;11.08;80.46
71504;BME280;59323;50.874;7.028;2022-11-02T05:29:36;101567.25;;;11.06;80.06
71504;BME280;59323;50.874;7.028;2022-11-02T05:32:01;101576.06;;;11.03;80.42
71504;BME280;59323;50.874;7.028;2022-11-02T05:34:27;101574.63;;;11.05;80.22
71504;BME280;59323;50.874;7.028;2022-11-02T05:36:52;101567.81;;;10.99;80.21
71504;BME280;59323;50.874;7.028;2022-11-02T05:39:17;101582.56;;;10.98;80.25
71504;BME280;59323;50.874;7.028;2022-11-02T05:41:43;101574.06;;;11.00;80.62
71504;BME280;59323;50.874;7.028;2022-11-02T05:44:08;101581.06;;;11.01;80.28
71504;BME280;59323;50.874;7.028;2022-11-02T05:46:34;101578.25;;;10.97;80.68
71504;BME280;59323;50.874;7.028;2022-11-02T05:48:59;101587.19;;;10.98;80.27
71504;BME280;59323;50.874;7.028;2022-11-02T05:51:24;101592.19;;;10.96;80.15
71504;BME280;59323;50.874;7.028;2022-11-02T05:53:52;101593.34;;;10.95;79.99
71504;BME280;59323;50.874;7.028;2022-11-02T05:56:17;101588.03;;;10.86;80.21
71504;BME280;59323;50.874;7.028;2022-11-02T05:58:43;101595.84;;;10.88;79.92
71504;BME280;59323;50.874;7.028;2022-11-02T06:01:09;101611.03;;;10.89;79.86
71504;BME280;59323;50.874;7.028;2022-11-02T06:03:35;101612.16;;;10.88;79.67
71504;BME280;59323;50.874;7.028;2022-11-02T06:06:06;101609.44;;;10.88;79.75
71504;BME280;59323;50.874;7.028;2022-11-02T06:08:33;101622.00;;;10.92;79.62
71504;BME280;59323;50.874;7.028;2022-11-02T06:11:09;101624.63;;;10.89;79.85
71504;BME280;59323;50.874;7.028;2022-11-02T06:13:35;101630.50;;;10.91;79.41
71504;BME280;59323;50.874;7.028;2022-11-02T06:16:01;101629.63;;;10.87;79.68
71504;BME280;59323;50.874;7.028;2022-11-02T06:18:27;101647.97;;;10.90;79.60
71504;BME280;59323;50.874;7.028;2022-11-02T06:20:56;101643.66;;;10.89;79.64
71504;BME280;59323;50.874;7.028;2022-11-02T06:23:22;101648.75;;;10.90;78.87
71504;BME280;59323;50.874;7.028;2022-11-02T06:25:55;101660.88;;;10.93;79.44
71504;BME280;59323;50.874;7.028;2022-11-02T06:28:21;101653.84;;;10.92;78.99
71504;BME280;59323;50.874;7.028;2022-11-02T06:30:47;101648.66;;;10.87;79.26
71504;BME280;59323;50.874;7.028;2022-11-02T06:33:13;101657.69;;;10.91;79.46
71504;BME280;59323;50.874;7.028;2022-11-02T06:35:39;101658.03;;;10.89;79.60
71504;BME280;59323;50.874;7.028;2022-11-02T06:38:04;101661.44;;;10.86;79.69
71504;BME280;59323;50.874;7.028;2022-11-02T06:40:29;101654.09;;;10.87;79.48
71504;BME280;59323;50.874;7.028;2022-11-02T06:42:56;101668.56;;;10.91;79.59
71504;BME280;59323;50.874;7.028;2022-11-02T06:45:22;101679.69;;;10.86;79.97
71504;BME280;59323;50.874;7.028;2022-11-02T06:47:56;101685.59;;;10.88;79.52
71504;BME280;59323;50.874;7.028;2022-11-02T06:50:24;101680.38;;;10.83;79.72
71504;BME280;59323;50.874;7.028;2022-11-02T06:52:50;101681.41;;;10.78;79.37
71504;BME280;59323;50.874;7.028;2022-11-02T06:55:16;101692.38;;;10.82;79.11
71504;BME280;59323;50.874;7.028;2022-11-02T06:57:43;101692.28;;;10.78;79.01
71504;BME280;59323;50.874;7.028;2022-11-02T07:00:11;101697.38;;;10.79;79.54
71504;BME280;59323;50.874;7.028;2022-11-02T07:02:40;101714.25;;;10.85;79.49
71504;BME280;59323;50.874;7.028;2022-11-02T07:05:06;101705.53;;;10.79;78.77
71504;BME280;59323;50.874;7.028;2022-11-02T07:07:33;101706.22;;;10.76;78.41
71504;BME280;59323;50.874;7.028;2022-11-02T07:10:01;101716.06;;;10.81;78.40
71504;BME280;59323;50.874;7.028;2022-11-02T07:12:35;101720.72;;;10.80;78.43
71504;BME280;59323;50.874;7.028;2022-11-02T07:15:04;101727.28;;;10.79;78.25
71504;BME280;59323;50.874;7.028;2022-11-02T07:17:45;101731.69;;;10.84;78.73
71504;BME280;59323;50.874;7.028;2022-11-02T07:20:11;101748.91;;;10.88;78.42
71504;BME280;59323;50.874;7.028;2022-11-02T07:22:36;101742.13;;;10.82;78.94
71504;BME280;59323;50.874;7.028;2022-11-02T07:25:08;101741.44;;;10.85;78.38
71504;BME280;59323;50.874;7.028;2022-11-02T07:27:39;101752.53;;;10.92;78.34
71504;BME280;59323;50.874;7.028;2022-11-02T07:30:07;101741.66;;;10.92;78.63
71504;BME280;59323;50.874;7.028;2022-11-02T07:32:43;101766.91;;;11.05;78.60
71504;BME280;59323;50.874;7.028;2022-11-02T07:35:18;101756.63;;;10.98;78.42
71504;BME280;59323;50.874;7.028;2022-11-02T07:38:09;101768.41;;;11.15;78.08
71504;BME280;59323;50.874;7.028;2022-11-02T07:40:47;101776.31;;;11.20;78.22
71504;BME280;59323;50.874;7.028;2022-11-02T07:43:13;101775.31;;;11.24;77.71
71504;BME280;59323;50.874;7.028;2022-11-02T07:45:44;101776.53;;;11.27;76.54
71504;BME280;59323;50.874;7.028;2022-11-02T07:48:12;101777.09;;;11.32;76.73
71504;BME280;59323;50.874;7.028;2022-11-02T07:51:01;101777.41;;;11.43;77.04
71504;BME280;59323;50.874;7.028;2022-11-02T07:53:31;101775.88;;;11.58;75.88
71504;BME280;59323;50.874;7.028;2022-11-02T07:56:03;101793.34;;;11.81;75.58
71504;BME280;59323;50.874;7.028;2022-11-02T07:58:29;101801.81;;;11.92;75.45
71504;BME280;59323;50.874;7.028;2022-11-02T08:01:10;101793.38;;;11.97;74.61
71504;BME280;59323;50.874;7.028;2022-11-02T08:04:04;101796.88;;;12.25;74.19
71504;BME280;59323;50.874;7.028;2022-11-02T08:06:37;101807.72;;;12.53;73.55
71504;BME280;59323;50.874;7.028;2022-11-02T08:09:02;101803.59;;;12.75;72.52
71504;BME280;59323;50.874;7.028;2022-11-02T08:11:28;101819.78;;;13.15;71.56
71504;BME280;59323;50.874;7.028;2022-11-02T08:13:53;101816.84;;;13.40;70.53
71504;BME280;59323;50.874;7.028;2022-11-02T08:16:22;101801.34;;;13.63;66.81
71504;BME280;59323;50.874;7.028;2022-11-02T08:19:03;101821.28;;;14.02;67.90
71504;BME280;59323;50.874;7.028;2022-11-02T08:21:38;101825.00;;;14.33;67.55
71504;BME280;59323;50.874;7.028;2022-11-02T08:24:05;101826.25;;;14.58;66.23
71504;BME280;59323;50.874;7.028;2022-11-02T08:26:33;101821.06;;;14.76;63.39
71504;BME280;59323;50.874;7.028;2022-11-02T08:29:19;101829.16;;;14.91;63.19
71504;BME280;59323;50.874;7.028;2022-11-02T08:31:51;101840.41;;;15.09;62.33
71504;BME280;59323;50.874;7.028;2022-11-02T08:34:20;101834.34;;;15.23;63.13
71504;BME280;59323;50.874;7.028;2022-11-02T08:37:00;101838.16;;;15.45;60.87
71504;BME280;59323;50.874;7.028;2022-11-02T08:39:29;101834.50;;;15.60;61.11
71504;BME280;59323;50.874;7.028;2022-11-02T08:44:54;101848.66;;;15.96;59.40
71504;BME280;59323;50.874;7.028;2022-11-02T08:47:45;101846.13;;;15.80;57.70
71504;BME280;59323;50.874;7.028;2022-11-02T08:50:40;101846.22;;;15.87;59.75
71504;BME280;59323;50.874;7.028;2022-11-02T08:53:20;101851.38;;;15.92;59.18
71504;BME280;59323;50.874;7.028;2022-11-02T08:56:42;101841.19;;;15.93;56.51
71504;BME280;59323;50.874;7.028;2022-11-02T08:59:19;101851.41;;;15.96;58.72
71504;BME280;59323;50.874;7.028;2022-11-02T09:04:32;101862.13;;;16.08;57.19
71504;BME280;59323;50.874;7.028;2022-11-02T09:07:28;101857.50;;;16.15;58.10
71504;BME280;59323;50.874;7.028;2022-11-02T09:10:13;101848.28;;;16.31;57.81
71504;BME280;59323;50.874;7.028;2022-11-02T09:13:07;101848.75;;;16.36;58.07
71504;BME280;59323;50.874;7.028;2022-11-02T09:23:17;101865.19;;;16.36;57.54
71504;BME280;59323;50.874;7.028;2022-11-02T09:25:47;101871.06;;;16.35;56.90
71504;BME280;59323;50.874;7.028;2022-11-02T09:28:12;101862.13;;;16.41;56.67
71504;BME280;59323;50.874;7.028;2022-11-02T09:30:39;101864.19;;;16.52;56.28
71504;BME280;59323;50.874;7.028;2022-11-02T09:33:06;101872.06;;;16.57;55.62
71504;BME280;59323;50.874;7.028;2022-11-02T09:35:34;101878.84;;;16.66;55.33
71504;BME280;59323;50.874;7.028;2022-11-02T09:38:00;101876.44;;;16.61;53.64
71504;BME280;59323;50.874;7.028;2022-11-02T09:43:49;101887.22;;;16.43;55.06
71504;BME280;59323;50.874;7.028;2022-11-02T09:46:26;101876.63;;;16.42;53.28
71504;BME280;59323;50.874;7.028;2022-11-02T09:48:57;101877.50;;;16.49;52.99
71504;BME280;59323;50.874;7.028;2022-11-02T09:54:18;101884.63;;;16.58;53.64
71504;BME280;59323;50.874;7.028;2022-11-02T09:56:46;101878.47;;;16.68;54.19
71504;BME280;59323;50.874;7.028;2022-11-02T09:59:18;101881.25;;;16.71;53.51
71504;BME280;59323;50.874;7.028;2022-11-02T10:12:14;101902.19;;;16.49;49.69
71504;BME280;59323;50.874;7.028;2022-11-02T10:14:58;101904.19;;;16.53;48.83
71504;BME280;59323;50.874;7.028;2022-11-02T10:17:33;101898.25;;;16.47;49.81
71504;BME280;59323;50.874;7.028;2022-11-02T10:20:05;101901.41;;;16.49;49.18
71504;BME280;59323;50.874;7.028;2022-11-02T10:22:35;101897.88;;;16.48;47.41
71504;BME280;59323;50.874;7.028;2022-11-02T10:25:06;101909.19;;;16.43;49.15
71504;BME280;59323;50.874;7.028;2022-11-02T10:27:38;101902.56;;;16.48;48.45
71504;BME280;59323;50.874;7.028;2022-11-02T10:30:12;101905.66;;;16.43;48.89
71504;BME280;59323;50.874;7.028;2022-11-02T10:32:39;101907.56;;;16.39;49.49
71504;BME280;59323;50.874;7.028;2022-11-02T10:35:15;101890.56;;;16.26;50.41
71504;BME280;59323;50.874;7.028;2022-11-02T10:37:54;101897.63;;;16.27;50.40
71504;BME280;59323;50.874;7.028;2022-11-02T10:43:31;101899.09;;;16.21;51.03
71504;BME280;59323;50.874;7.028;2022-11-02T10:49:02;101894.31;;;16.14;50.38
71504;BME280;59323;50.874;7.028;2022-11-02T10:51:30;101884.84;;;16.08;50.29
71504;BME280;59323;50.874;7.028;2022-11-02T10:53:55;101907.69;;;16.20;48.94
71504;BME280;59323;50.874;7.028;2022-11-02T10:56:22;101908.03;;;16.14;49.51
71504;BME280;59323;50.874;7.028;2022-11-02T11:01:35;101888.63;;;15.97;49.56
71504;BME280;59323;50.874;7.028;2022-11-02T11:04:08;101891.78;;;15.99;49.59
71504;BME280;59323;50.874;7.028;2022-11-02T11:06:43;101890.50;;;15.89;51.28
71504;BME280;59323;50.874;7.028;2022-11-02T11:09:20;101893.22;;;15.89;51.66
71504;BME280;59323;50.874;7.028;2022-11-02T11:12:12;101892.53;;;15.96;51.53
71504;BME280;59323;50.874;7.028;2022-11-02T11:17:16;101889.38;;;15.94;51.92
71504;BME280;59323;50.874;7.028;2022-11-02T11:19:56;101883.94;;;15.97;50.21
71504;BME280;59323;50.874;7.028;2022-11-02T11:22:39;101898.84;;;16.00;50.74
71504;BME280;59323;50.874;7.028;2022-11-02T11:27:56;101897.25;;;15.99;50.48
71504;BME280;59323;50.874;7.028;2022-11-02T11:32:54;101892.75;;;15.83;50.88
71504;BME280;59323;50.874;7.028;2022-11-02T11:35:21;101894.25;;;15.77;51.34
71504;BME280;59323;50.874;7.028;2022-11-02T11:37:56;101890.41;;;15.82;52.38
71504;BME280;59323;50.874;7.028;2022-11-02T11:40:24;101893.97;;;15.86;51.11
71504;BME280;59323;50.874;7.028;2022-11-02T11:42:52;101902.16;;;15.82;52.34
71504;BME280;59323;50.874;7.028;2022-11-02T11:45:26;101891.56;;;15.81;52.97
71504;BME280;59323;50.874;7.028;2022-11-02T11:48:03;101887.38;;;15.91;53.51
71504;BME280;59323;50.874;7.028;2022-11-02T11:50:33;101882.41;;;16.00;53.32
71504;BME280;59323;50.874;7.028;2022-11-02T11:53:15;101878.25;;;16.13;52.78
71504;BME280;59323;50.874;7.028;2022-11-02T11:55:59;101872.44;;;16.18;53.44
71504;BME280;59323;50.874;7.028;2022-11-02T11:58:31;101874.84;;;16.23;51.91
71504;BME280;59323;50.874;7.028;2022-11-02T12:01:05;101880.72;;;16.25;52.71
71504;BME280;59323;50.874;7.028;2022-11-02T12:03:53;101882.44;;;16.37;51.95
71504;BME280;59323;50.874;7.028;2022-11-02T12:11:54;101863.66;;;16.39;52.29
71504;BME280;59323;50.874;7.028;2022-11-02T12:17:19;101861.06;;;16.53;52.22
71504;BME280;59323;50.874;7.028;2022-11-02T12:31:02;101844.97;;;16.52;51.94
71504;BME280;59323;50.874;7.028;2022-11-02T12:39:10;101844.47;;;16.79;50.89
71504;BME280;59323;50.874;7.028;2022-11-02T12:42:11;101839.78;;;16.84;51.30
71504;BME280;59323;50.874;7.028;2022-11-02T12:44:57;101844.09;;;16.81;51.59
71504;BME280;59323;50.874;7.028;2022-11-02T12:50:54;101840.75;;;16.61;51.44
71504;BME280;59323;50.874;7.028;2022-11-02T12:53:41;101821.44;;;16.51;48.44
71504;BME280;59323;50.874;7.028;2022-11-02T12:56:14;101825.28;;;16.42;50.35
71504;BME280;59323;50.874;7.028;2022-11-02T12:58:42;101831.53;;;16.39;48.89
71504;BME280;59323;50.874;7.028;2022-11-02T13:03:50;101830.16;;;16.23;47.61
71504;BME280;59323;50.874;7.028;2022-11-02T13:06:39;101821.41;;;16.10;49.09
71504;BME280;59323;50.874;7.028;2022-11-02T13:09:10;101817.00;;;16.02;49.96
71504;BME280;59323;50.874;7.028;2022-11-02T13:11:41;101816.25;;;16.05;49.65
71504;BME280;59323;50.874;7.028;2022-11-02T13:14:17;101821.41;;;16.10;50.87
71504;BME280;59323;50.874;7.028;2022-11-02T13:17:05;101813.59;;;16.12;49.78
71504;BME280;59323;50.874;7.028;2022-11-02T13:19:39;101803.00;;;16.10;50.22
71504;BME280;59323;50.874;7.028;2022-11-02T13:22:10;101809.34;;;16.18;49.09
71504;BME280;59323;50.874;7.028;2022-11-02T13:24:44;101806.63;;;16.22;49.91
71504;BME280;59323;50.874;7.028;2022-11-02T13:27:30;101822.44;;;16.32;50.14
71504;BME280;59323;50.874;7.028;2022-11-02T13:30:12;101816.56;;;16.33;49.17
71504;BME280;59323;50.874;7.028;2022-11-02T13:32:43;101825.31;;;16.46;48.78
71504;BME280;59323;50.874;7.028;2022-11-02T13:35:22;101816.28;;;16.42;48.38
71504;BME280;59323;50.874;7.028;2022-11-02T13:37:52;101807.22;;;16.38;48.00
71504;BME280;59323;50.874;7.028;2022-11-02T13:40:23;101813.09;;;16.36;48.51
71504;BME280;59323;50.874;7.028;2022-11-02T13:48:37;101805.09;;;16.24;51.32
71504;BME280;59323;50.874;7.028;2022-11-02T13:51:18;101801.13;;;16.18;50.67
71504;BME280;59323;50.874;7.028;2022-11-02T13:54:14;101797.59;;;16.17;50.46
71504;BME280;59323;50.874;7.028;2022-11-02T13:56:38;101796.34;;;16.11;50.31
71504;BME280;59323;50.874;7.028;2022-11-02T13:59:08;101808.94;;;16.16;51.10
71504;BME280;59323;50.874;7.028;2022-11-02T14:01:38;101802.25;;;16.13;51.16
71504;BME280;59323;50.874;7.028;2022-11-02T14:04:09;101801.13;;;16.18;50.89
71504;BME280;59323;50.874;7.028;2022-11-02T14:06:48;101793.94;;;16.06;51.40
71504;BME280;59323;50.874;7.028;2022-11-02T14:14:37;101794.25;;;15.98;52.32
71504;BME280;59323;50.874;7.028;2022-11-02T14:17:10;101795.41;;;15.97;52.59
71504;BME280;59323;50.874;7.028;2022-11-02T14:22:18;101791.38;;;15.87;53.50
71504;BME280;59323;50.874;7.028;2022-11-02T14:41:19;101785.53;;;15.59;55.05
71504;BME280;59323;50.874;7.028;2022-11-02T14:44:24;101793.31;;;15.57;55.11
71504;BME280;59323;50.874;7.028;2022-11-02T14:47:11;101791.69;;;15.52;54.38
71504;BME280;59323;50.874;7.028;2022-11-02T14:49:53;101778.31;;;15.47;54.10
71504;BME280;59323;50.874;7.028;2022-11-02T14:52:37;101775.88;;;15.38;54.09
71504;BME280;59323;50.874;7.028;2022-11-02T14:58:17;101774.94;;;15.27;55.59
71504;BME280;59323;50.874;7.028;2022-11-02T15:03:31;101768.56;;;15.19;55.70
71504;BME280;59323;50.874;7.028;2022-11-02T15:06:12;101774.06;;;15.19;54.40
71504;BME280;59323;50.874;7.028;2022-11-02T15:09:03;101766.09;;;15.11;54.83
71504;BME280;59323;50.874;7.028;2022-11-02T15:19:51;101752.78;;;14.83;55.36
71504;BME280;59323;50.874;7.028;2022-11-02T15:27:35;101748.44;;;14.55;55.14
71504;BME280;59323;50.874;7.028;2022-11-02T15:30:04;101751.97;;;14.56;55.37
71504;BME280;59323;50.874;7.028;2022-11-02T15:32:37;101742.81;;;14.45;55.55
71504;BME280;59323;50.874;7.028;2022-11-02T15:35:03;101751.00;;;14.45;56.04
71504;BME280;59323;50.874;7.028;2022-11-02T15:37:31;101734.75;;;14.33;55.80
71504;BME280;59323;50.874;7.028;2022-11-02T15:39:59;101748.06;;;14.34;55.67
71504;BME280;59323;50.874;7.028;2022-11-02T15:50:29;101757.03;;;14.12;56.95
71504;BME280;59323;50.874;7.028;2022-11-02T16:01:24;101758.94;;;13.88;57.07